sensor_id;sensor_type;location;lat;lon;timestamp;P1;durP1;ratioP1;P2;durP2;ratioP2
50531;SDS011;36483;37.396;-122.212;2022-08-01T00:01:31;2.13;;;0.80;;
50531;SDS011;36483;37.396;-122.212;2022-08-01T00:03:57;2.83;;;0.82;;
50531;SDS011;36483;37.396;-122.212;2022-08-01T00:06:23;2.38;;;0.80;;
50531;SDS011;36483;37.396;-122.212;2022-08-01T00:08:49;2.03;;;0.80;;
50531;SDS011;36483;37.396;-122.212;2022-08-01T00:11:15;1.25;;;0.82;;
50531;SDS011;36483;37.396;-122.212;2022-08-01T00:13:41;1.20;;;0.80;;
50531;SDS011;36483;37.396;-122.212;2022-08-01T00:16:09;2.33;;;0.90;;
50531;SDS011;36483;37.396;-122.212;2022-08-01T00:18:35;1.30;;;0.75;;
50531;SDS011;36483;37.396;-122.212;2022-08-01T00:21:02;0.95;;;0.70;;
50531;SDS011;36483;37.396;-122.212;2022-08-01T00:23:29;2.35;;;0.90;;
50531;SDS011;36483;37.396;-122.212;2022-08-01T00:25:55;1.02;;;0.80;;
50531;SDS011;36483;37.396;-122.212;2022-08-01T00:28:22;1.33;;;0.80;;
50531;SDS011;36483;37.396;-122.212;2022-08-01T00:30:48;0.85;;;0.70;;
50531;SDS011;36483;37.396;-122.212;2022-08-01T00:33:14;1.40;;;0.60;;
50531;SDS011;36483;37.396;-122.212;2022-08-01T00:35:40;2.05;;;0.75;;
50531;SDS011;36483;37.396;-122.212;2022-08-01T00:38:06;1.33;;;0.93;;
50531;SDS011;36483;37.396;-122.212;2022-08-01T00:40:32;1.05;;;0.70;;
50531;SDS011;36483;37.396;-122.212;2022-08-01T00:42:58;1.20;;;0.90;;
50531;SDS011;36483;37.396;-122.212;2022-08-01T00:45:25;2.85;;;0.70;;
50531;SDS011;36483;37.396;-122.212;2022-08-01T00:47:51;1.30;;;0.77;;
50531;SDS011;36483;37.396;-122.212;2022-08-01T00:50:17;1.17;;;0.60;;
50531;SDS011;36483;37.396;-122.212;2022-08-01T00:52:44;1.25;;;0.85;;
50531;SDS011;36483;37.396;-122.212;2022-08-01T00:55:10;3.35;;;0.80;;
50531;SDS011;36483;37.396;-122.212;2022-08-01T00:57:38;2.35;;;0.73;;
50531;SDS011;36483;37.396;-122.212;2022-08-01T01:00:05;0.90;;;0.75;;
50531;SDS011;36483;37.396;-122.212;2022-08-01T01:02:32;3.67;;;0.80;;
50531;SDS011;36483;37.396;-122.212;2022-08-01T01:05:00;3.97;;;1.00;;
50531;SDS011;36483;37.396;-122.212;2022-08-01T01:07:29;3.28;;;0.77;;
50531;SDS011;36483;37.396;-122.212;2022-08-01T01:10:06;1.45;;;0.70;;
50531;SDS011;36483;37.396;-122.212;2022-08-01T01:12:42;1.10;;;0.63;;
50531;SDS011;36483;37.396;-122.212;2022-08-01T01:15:15;1.63;;;0.75;;
50531;SDS011;36483;37.396;-122.212;2022-08-01T01:17:54;1.05;;;0.80;;
50531;SDS011;36483;37.396;-122.212;2022-08-01T01:20:42;1.15;;;0.60;;
50531;SDS011;36483;37.396;-122.212;2022-08-01T01:28:30;0.90;;;0.65;;
50531;SDS011;36483;37.396;-122.212;2022-08-01T01:31:06;1.65;;;0.60;;
50531;SDS011;36483;37.396;-122.212;2022-08-01T01:33:34;0.88;;;0.65;;
50531;SDS011;36483;37.396;-122.212;2022-08-01T01:36:03;1.98;;;0.82;;
50531;SDS011;36483;37.396;-122.212;2022-08-01T01:38:36;2.70;;;0.70;;
50531;SDS011;36483;37.396;-122.212;2022-08-01T01:41:07;0.95;;;0.70;;
50531;SDS011;36483;37.396;-122.212;2022-08-01T01:43:34;3.10;;;0.68;;
50531;SDS011;36483;37.396;-122.212;2022-08-01T01:46:01;2.03;;;0.70;;
50531;SDS011;36483;37.396;-122.212;2022-08-01T01:48:29;1.33;;;0.52;;
50531;SDS011;36483;37.396;-122.212;2022-08-01T01:50:55;0.80;;;0.50;;
50531;SDS011;36483;37.396;-122.212;2022-08-01T01:53:22;1.45;;;0.63;;
50531;SDS011;36483;37.396;-122.212;2022-08-01T01:55:49;2.53;;;0.60;;
50531;SDS011;36483;37.396;-122.212;2022-08-01T01:58:18;0.45;;;0.45;;
50531;SDS011;36483;37.396;-122.212;2022-08-01T02:00:46;1.27;;;0.60;;
50531;SDS011;36483;37.396;-122.212;2022-08-01T02:03:12;0.50;;;0.50;;
50531;SDS011;36483;37.396;-122.212;2022-08-01T02:05:40;0.50;;;0.50;;
50531;SDS011;36483;37.396;-122.212;2022-08-01T02:08:07;0.55;;;0.50;;
50531;SDS011;36483;37.396;-122.212;2022-08-01T02:10:34;0.73;;;0.50;;
50531;SDS011;36483;37.396;-122.212;2022-08-01T02:13:02;0.65;;;0.50;;
50531;SDS011;36483;37.396;-122.212;2022-08-01T02:15:32;1.92;;;0.60;;
50531;SDS011;36483;37.396;-122.212;2022-08-01T02:18:03;1.02;;;0.57;;
50531;SDS011;36483;37.396;-122.212;2022-08-01T02:20:31;1.73;;;0.50;;
50531;SDS011;36483;37.396;-122.212;2022-08-01T02:23:01;1.83;;;0.50;;
50531;SDS011;36483;37.396;-122.212;2022-08-01T02:25:34;0.98;;;0.50;;
50531;SDS011;36483;37.396;-122.212;2022-08-01T02:28:06;0.80;;;0.60;;
50531;SDS011;36483;37.396;-122.212;2022-08-01T02:30:35;1.05;;;0.50;;
50531;SDS011;36483;37.396;-122.212;2022-08-01T02:33:23;0.77;;;0.60;;
50531;SDS011;36483;37.396;-122.212;2022-08-01T02:35:52;1.08;;;0.60;;
50531;SDS011;36483;37.396;-122.212;2022-08-01T02:38:22;0.60;;;0.60;;
50531;SDS011;36483;37.396;-122.212;2022-08-01T02:40:50;0.70;;;0.57;;
50531;SDS011;36483;37.396;-122.212;2022-08-01T02:43:18;0.90;;;0.70;;
50531;SDS011;36483;37.396;-122.212;2022-08-01T02:45:47;0.90;;;0.70;;
50531;SDS011;36483;37.396;-122.212;2022-08-01T02:48:17;1.52;;;0.70;;
50531;SDS011;36483;37.396;-122.212;2022-08-01T02:50:45;0.60;;;0.60;;
50531;SDS011;36483;37.396;-122.212;2022-08-01T02:53:13;1.00;;;0.70;;
50531;SDS011;36483;37.396;-122.212;2022-08-01T02:55:42;0.85;;;0.55;;
50531;SDS011;36483;37.396;-122.212;2022-08-01T02:58:10;0.90;;;0.70;;
50531;SDS011;36483;37.396;-122.212;2022-08-01T03:00:38;1.17;;;0.77;;
50531;SDS011;36483;37.396;-122.212;2022-08-01T03:03:06;0.70;;;0.50;;
50531;SDS011;36483;37.396;-122.212;2022-08-01T03:05:33;2.28;;;0.70;;
50531;SDS011;36483;37.396;-122.212;2022-08-01T03:08:01;1.50;;;0.77;;
50531;SDS011;36483;37.396;-122.212;2022-08-01T03:10:28;1.75;;;0.60;;
50531;SDS011;36483;37.396;-122.212;2022-08-01T03:12:55;1.52;;;0.50;;
50531;SDS011;36483;37.396;-122.212;2022-08-01T03:15:23;0.63;;;0.50;;
50531;SDS011;36483;37.396;-122.212;2022-08-01T03:17:50;0.98;;;0.70;;
50531;SDS011;36483;37.396;-122.212;2022-08-01T03:20:17;1.25;;;0.70;;
50531;SDS011;36483;37.396;-122.212;2022-08-01T03:22:44;1.60;;;0.50;;
50531;SDS011;36483;37.396;-122.212;2022-08-01T03:25:11;0.80;;;0.60;;
50531;SDS011;36483;37.396;-122.212;2022-08-01T03:27:39;1.17;;;0.60;;
50531;SDS011;36483;37.396;-122.212;2022-08-01T03:30:06;1.40;;;0.70;;
50531;SDS011;36483;37.396;-122.212;2022-08-01T03:32:32;1.27;;;0.75;;
50531;SDS011;36483;37.396;-122.212;2022-08-01T03:34:59;0.93;;;0.63;;
50531;SDS011;36483;37.396;-122.212;2022-08-01T03:40:04;1.65;;;0.60;;
50531;SDS011;36483;37.396;-122.212;2022-08-01T03:42:36;1.20;;;0.70;;
50531;SDS011;36483;37.396;-122.212;2022-08-01T03:45:06;1.88;;;0.80;;
50531;SDS011;36483;37.396;-122.212;2022-08-01T03:47:37;0.90;;;0.70;;
50531;SDS011;36483;37.396;-122.212;2022-08-01T03:50:05;1.00;;;0.70;;
50531;SDS011;36483;37.396;-122.212;2022-08-01T03:52:32;1.23;;;0.65;;
50531;SDS011;36483;37.396;-122.212;2022-08-01T03:54:59;2.70;;;0.68;;
50531;SDS011;36483;37.396;-122.212;2022-08-01T03:59:59;1.50;;;0.70;;
50531;SDS011;36483;37.396;-122.212;2022-08-01T04:02:28;0.88;;;0.70;;
50531;SDS011;36483;37.396;-122.212;2022-08-01T04:04:54;2.03;;;0.75;;
50531;SDS011;36483;37.396;-122.212;2022-08-01T04:07:21;0.70;;;0.52;;
50531;SDS011;36483;37.396;-122.212;2022-08-01T04:09:56;0.90;;;0.70;;
50531;SDS011;36483;37.396;-122.212;2022-08-01T04:12:22;2.13;;;0.70;;
50531;SDS011;36483;37.396;-122.212;2022-08-01T04:14:49;1.95;;;0.70;;
50531;SDS011;36483;37.396;-122.212;2022-08-01T04:17:16;4.75;;;1.02;;
50531;SDS011;36483;37.396;-122.212;2022-08-01T04:19:42;1.88;;;0.80;;
50531;SDS011;36483;37.396;-122.212;2022-08-01T04:22:13;0.90;;;0.68;;
50531;SDS011;36483;37.396;-122.212;2022-08-01T04:24:41;1.02;;;0.70;;
50531;SDS011;36483;37.396;-122.212;2022-08-01T04:27:09;1.13;;;0.60;;
50531;SDS011;36483;37.396;-122.212;2022-08-01T04:29:38;1.08;;;0.70;;
50531;SDS011;36483;37.396;-122.212;2022-08-01T04:32:06;1.85;;;0.80;;
50531;SDS011;36483;37.396;-122.212;2022-08-01T04:34:34;1.02;;;0.70;;
50531;SDS011;36483;37.396;-122.212;2022-08-01T04:37:04;2.28;;;0.85;;
50531;SDS011;36483;37.396;-122.212;2022-08-01T04:39:31;2.25;;;0.90;;
50531;SDS011;36483;37.396;-122.212;2022-08-01T04:41:58;1.63;;;0.80;;
50531;SDS011;36483;37.396;-122.212;2022-08-01T04:44:28;1.50;;;0.80;;
50531;SDS011;36483;37.396;-122.212;2022-08-01T04:46:58;0.98;;;0.70;;
50531;SDS011;36483;37.396;-122.212;2022-08-01T04:49:26;1.45;;;0.90;;
50531;SDS011;36483;37.396;-122.212;2022-08-01T04:51:53;1.48;;;0.90;;
50531;SDS011;36483;37.396;-122.212;2022-08-01T04:54:23;1.08;;;0.73;;
50531;SDS011;36483;37.396;-122.212;2022-08-01T04:56:50;0.93;;;0.70;;
50531;SDS011;36483;37.396;-122.212;2022-08-01T04:59:19;3.05;;;0.95;;
50531;SDS011;36483;37.396;-122.212;2022-08-01T05:02:03;1.23;;;0.95;;
50531;SDS011;36483;37.396;-122.212;2022-08-01T05:04:29;1.67;;;1.10;;
50531;SDS011;36483;37.396;-122.212;2022-08-01T05:06:55;2.42;;;0.98;;
50531;SDS011;36483;37.396;-122.212;2022-08-01T05:09:21;1.92;;;1.02;;
50531;SDS011;36483;37.396;-122.212;2022-08-01T05:11:47;1.20;;;1.00;;
50531;SDS011;36483;37.396;-122.212;2022-08-01T05:14:14;1.13;;;0.90;;
50531;SDS011;36483;37.396;-122.212;2022-08-01T05:16:40;1.42;;;1.00;;
50531;SDS011;36483;37.396;-122.212;2022-08-01T05:19:07;1.90;;;1.10;;
50531;SDS011;36483;37.396;-122.212;2022-08-01T05:21:33;1.98;;;1.13;;
50531;SDS011;36483;37.396;-122.212;2022-08-01T05:24:00;1.52;;;1.20;;
50531;SDS011;36483;37.396;-122.212;2022-08-01T05:26:27;2.05;;;1.30;;
50531;SDS011;36483;37.396;-122.212;2022-08-01T05:28:53;2.30;;;1.40;;
50531;SDS011;36483;37.396;-122.212;2022-08-01T05:31:19;2.17;;;1.52;;
50531;SDS011;36483;37.396;-122.212;2022-08-01T05:33:45;2.10;;;1.60;;
50531;SDS011;36483;37.396;-122.212;2022-08-01T05:36:11;2.67;;;1.70;;
50531;SDS011;36483;37.396;-122.212;2022-08-01T05:38:37;2.40;;;1.70;;
50531;SDS011;36483;37.396;-122.212;2022-08-01T05:41:04;2.42;;;1.80;;
50531;SDS011;36483;37.396;-122.212;2022-08-01T05:43:30;3.25;;;1.80;;
50531;SDS011;36483;37.396;-122.212;2022-08-01T05:45:56;2.90;;;1.80;;
50531;SDS011;36483;37.396;-122.212;2022-08-01T05:48:23;2.03;;;1.52;;
50531;SDS011;36483;37.396;-122.212;2022-08-01T05:50:49;2.78;;;1.98;;
50531;SDS011;36483;37.396;-122.212;2022-08-01T05:53:16;3.45;;;1.92;;
50531;SDS011;36483;37.396;-122.212;2022-08-01T05:55:42;4.43;;;1.90;;
50531;SDS011;36483;37.396;-122.212;2022-08-01T05:58:08;2.40;;;2.03;;
50531;SDS011;36483;37.396;-122.212;2022-08-01T06:00:34;2.97;;;2.20;;
50531;SDS011;36483;37.396;-122.212;2022-08-01T06:03:00;2.50;;;1.95;;
50531;SDS011;36483;37.396;-122.212;2022-08-01T06:05:26;2.95;;;2.00;;
50531;SDS011;36483;37.396;-122.212;2022-08-01T06:07:52;2.38;;;1.90;;
50531;SDS011;36483;37.396;-122.212;2022-08-01T06:10:18;2.30;;;2.08;;
50531;SDS011;36483;37.396;-122.212;2022-08-01T06:12:45;3.80;;;2.05;;
50531;SDS011;36483;37.396;-122.212;2022-08-01T06:15:11;3.65;;;2.10;;
50531;SDS011;36483;37.396;-122.212;2022-08-01T06:17:37;3.88;;;2.40;;
50531;SDS011;36483;37.396;-122.212;2022-08-01T06:20:05;2.58;;;2.00;;
50531;SDS011;36483;37.396;-122.212;2022-08-01T06:22:31;3.28;;;2.20;;
50531;SDS011;36483;37.396;-122.212;2022-08-01T06:24:57;4.22;;;2.30;;
50531;SDS011;36483;37.396;-122.212;2022-08-01T06:27:24;3.80;;;2.50;;
50531;SDS011;36483;37.396;-122.212;2022-08-01T06:29:51;4.63;;;2.00;;
50531;SDS011;36483;37.396;-122.212;2022-08-01T06:32:20;3.47;;;2.45;;
50531;SDS011;36483;37.396;-122.212;2022-08-01T06:34:48;3.75;;;2.25;;
50531;SDS011;36483;37.396;-122.212;2022-08-01T06:37:14;3.70;;;2.13;;
50531;SDS011;36483;37.396;-122.212;2022-08-01T06:39:41;4.05;;;2.42;;
50531;SDS011;36483;37.396;-122.212;2022-08-01T06:42:07;2.85;;;2.10;;
50531;SDS011;36483;37.396;-122.212;2022-08-01T06:44:34;2.83;;;2.10;;
50531;SDS011;36483;37.396;-122.212;2022-08-01T06:47:01;4.25;;;2.78;;
50531;SDS011;36483;37.396;-122.212;2022-08-01T06:49:27;4.07;;;2.72;;
50531;SDS011;36483;37.396;-122.212;2022-08-01T06:51:53;4.13;;;2.70;;
50531;SDS011;36483;37.396;-122.212;2022-08-01T06:54:19;4.32;;;2.50;;
50531;SDS011;36483;37.396;-122.212;2022-08-01T06:56:46;3.05;;;2.55;;
50531;SDS011;36483;37.396;-122.212;2022-08-01T06:59:12;3.35;;;2.60;;
50531;SDS011;36483;37.396;-122.212;2022-08-01T07:01:38;4.15;;;2.70;;
50531;SDS011;36483;37.396;-122.212;2022-08-01T07:04:04;3.95;;;2.75;;
50531;SDS011;36483;37.396;-122.212;2022-08-01T07:06:30;4.90;;;2.65;;
50531;SDS011;36483;37.396;-122.212;2022-08-01T07:08:56;3.72;;;2.80;;
50531;SDS011;36483;37.396;-122.212;2022-08-01T07:11:23;5.93;;;3.38;;
50531;SDS011;36483;37.396;-122.212;2022-08-01T07:13:49;5.32;;;3.00;;
50531;SDS011;36483;37.396;-122.212;2022-08-01T07:16:16;5.70;;;3.13;;
50531;SDS011;36483;37.396;-122.212;2022-08-01T07:18:43;7.60;;;3.33;;
50531;SDS011;36483;37.396;-122.212;2022-08-01T07:21:09;4.45;;;3.28;;
50531;SDS011;36483;37.396;-122.212;2022-08-01T07:23:35;4.55;;;3.30;;
50531;SDS011;36483;37.396;-122.212;2022-08-01T07:26:02;5.40;;;3.25;;
50531;SDS011;36483;37.396;-122.212;2022-08-01T07:28:28;5.50;;;3.67;;
50531;SDS011;36483;37.396;-122.212;2022-08-01T07:30:55;4.95;;;3.10;;
50531;SDS011;36483;37.396;-122.212;2022-08-01T07:33:21;4.97;;;3.15;;
50531;SDS011;36483;37.396;-122.212;2022-08-01T07:35:48;4.15;;;3.20;;
50531;SDS011;36483;37.396;-122.212;2022-08-01T07:38:14;5.50;;;2.88;;
50531;SDS011;36483;37.396;-122.212;2022-08-01T07:40:43;3.67;;;3.00;;
50531;SDS011;36483;37.396;-122.212;2022-08-01T07:43:09;5.07;;;2.97;;
50531;SDS011;36483;37.396;-122.212;2022-08-01T07:45:35;4.80;;;3.00;;
50531;SDS011;36483;37.396;-122.212;2022-08-01T07:48:05;5.25;;;3.47;;
50531;SDS011;36483;37.396;-122.212;2022-08-01T07:50:31;3.83;;;3.03;;
50531;SDS011;36483;37.396;-122.212;2022-08-01T07:52:58;4.32;;;3.22;;
50531;SDS011;36483;37.396;-122.212;2022-08-01T07:55:24;5.03;;;3.17;;
50531;SDS011;36483;37.396;-122.212;2022-08-01T07:57:51;5.43;;;3.00;;
50531;SDS011;36483;37.396;-122.212;2022-08-01T08:00:18;5.45;;;3.22;;
50531;SDS011;36483;37.396;-122.212;2022-08-01T08:02:44;3.90;;;2.90;;
50531;SDS011;36483;37.396;-122.212;2022-08-01T08:05:10;5.68;;;3.17;;
50531;SDS011;36483;37.396;-122.212;2022-08-01T08:07:37;4.15;;;3.13;;
50531;SDS011;36483;37.396;-122.212;2022-08-01T08:10:03;5.22;;;3.25;;
50531;SDS011;36483;37.396;-122.212;2022-08-01T08:12:31;4.40;;;3.05;;
50531;SDS011;36483;37.396;-122.212;2022-08-01T08:14:57;5.13;;;3.40;;
50531;SDS011;36483;37.396;-122.212;2022-08-01T08:17:26;4.10;;;2.90;;
50531;SDS011;36483;37.396;-122.212;2022-08-01T08:19:53;4.55;;;3.17;;
50531;SDS011;36483;37.396;-122.212;2022-08-01T08:22:19;5.55;;;2.80;;
50531;SDS011;36483;37.396;-122.212;2022-08-01T08:24:45;6.47;;;3.08;;
50531;SDS011;36483;37.396;-122.212;2022-08-01T08:27:11;3.90;;;2.95;;
50531;SDS011;36483;37.396;-122.212;2022-08-01T08:29:37;5.13;;;3.28;;
50531;SDS011;36483;37.396;-122.212;2022-08-01T08:32:04;4.57;;;3.38;;
50531;SDS011;36483;37.396;-122.212;2022-08-01T08:34:30;4.38;;;3.28;;
50531;SDS011;36483;37.396;-122.212;2022-08-01T08:36:56;4.25;;;3.13;;
50531;SDS011;36483;37.396;-122.212;2022-08-01T08:39:23;4.85;;;3.35;;
50531;SDS011;36483;37.396;-122.212;2022-08-01T08:41:49;4.78;;;3.25;;
50531;SDS011;36483;37.396;-122.212;2022-08-01T08:44:16;4.38;;;3.13;;
50531;SDS011;36483;37.396;-122.212;2022-08-01T08:46:44;4.25;;;3.20;;
50531;SDS011;36483;37.396;-122.212;2022-08-01T08:49:12;4.47;;;3.30;;
50531;SDS011;36483;37.396;-122.212;2022-08-01T08:51:42;6.68;;;3.45;;
50531;SDS011;36483;37.396;-122.212;2022-08-01T08:54:10;4.25;;;3.33;;
50531;SDS011;36483;37.396;-122.212;2022-08-01T08:56:38;4.13;;;3.33;;
50531;SDS011;36483;37.396;-122.212;2022-08-01T08:59:05;4.45;;;3.22;;
50531;SDS011;36483;37.396;-122.212;2022-08-01T09:01:31;4.53;;;3.05;;
50531;SDS011;36483;37.396;-122.212;2022-08-01T09:03:58;6.10;;;3.63;;
50531;SDS011;36483;37.396;-122.212;2022-08-01T09:06:25;5.85;;;3.50;;
50531;SDS011;36483;37.396;-122.212;2022-08-01T09:08:51;5.65;;;3.33;;
50531;SDS011;36483;37.396;-122.212;2022-08-01T09:11:17;6.78;;;3.53;;
50531;SDS011;36483;37.396;-122.212;2022-08-01T09:14:00;5.47;;;3.47;;
50531;SDS011;36483;37.396;-122.212;2022-08-01T09:16:28;4.28;;;3.55;;
50531;SDS011;36483;37.396;-122.212;2022-08-01T09:19:04;5.53;;;3.28;;
50531;SDS011;36483;37.396;-122.212;2022-08-01T09:22:24;4.60;;;3.28;;
50531;SDS011;36483;37.396;-122.212;2022-08-01T09:24:32;5.05;;;3.40;;
50531;SDS011;36483;37.396;-122.212;2022-08-01T09:26:59;3.75;;;3.03;;
50531;SDS011;36483;37.396;-122.212;2022-08-01T09:29:30;4.68;;;3.55;;
50531;SDS011;36483;37.396;-122.212;2022-08-01T09:31:59;8.20;;;3.60;;
50531;SDS011;36483;37.396;-122.212;2022-08-01T09:34:31;4.57;;;3.45;;
50531;SDS011;36483;37.396;-122.212;2022-08-01T09:37:01;5.00;;;3.63;;
50531;SDS011;36483;37.396;-122.212;2022-08-01T09:39:37;5.72;;;3.28;;
50531;SDS011;36483;37.396;-122.212;2022-08-01T09:42:24;4.18;;;3.35;;
50531;SDS011;36483;37.396;-122.212;2022-08-01T09:44:51;5.57;;;3.30;;
50531;SDS011;36483;37.396;-122.212;2022-08-01T09:47:18;5.05;;;3.13;;
50531;SDS011;36483;37.396;-122.212;2022-08-01T09:49:52;6.22;;;3.35;;
50531;SDS011;36483;37.396;-122.212;2022-08-01T09:52:21;4.82;;;3.65;;
50531;SDS011;36483;37.396;-122.212;2022-08-01T09:55:03;6.32;;;3.85;;
50531;SDS011;36483;37.396;-122.212;2022-08-01T09:57:31;5.32;;;3.45;;
50531;SDS011;36483;37.396;-122.212;2022-08-01T09:59:58;6.43;;;3.70;;
50531;SDS011;36483;37.396;-122.212;2022-08-01T10:05:02;4.65;;;2.92;;
50531;SDS011;36483;37.396;-122.212;2022-08-01T10:07:30;3.88;;;3.20;;
50531;SDS011;36483;37.396;-122.212;2022-08-01T10:09:56;7.13;;;3.95;;
50531;SDS011;36483;37.396;-122.212;2022-08-01T10:12:36;4.15;;;2.97;;
50531;SDS011;36483;37.396;-122.212;2022-08-01T10:15:02;3.80;;;2.92;;
50531;SDS011;36483;37.396;-122.212;2022-08-01T10:17:29;6.28;;;3.17;;
50531;SDS011;36483;37.396;-122.212;2022-08-01T10:19:55;4.43;;;3.40;;
50531;SDS011;36483;37.396;-122.212;2022-08-01T10:22:23;5.18;;;3.35;;
50531;SDS011;36483;37.396;-122.212;2022-08-01T10:24:50;5.55;;;3.42;;
50531;SDS011;36483;37.396;-122.212;2022-08-01T10:27:20;5.68;;;3.38;;
50531;SDS011;36483;37.396;-122.212;2022-08-01T10:29:50;5.68;;;3.80;;
50531;SDS011;36483;37.396;-122.212;2022-08-01T10:32:21;5.35;;;3.92;;
50531;SDS011;36483;37.396;-122.212;2022-08-01T10:34:49;6.05;;;3.75;;
50531;SDS011;36483;37.396;-122.212;2022-08-01T10:37:15;4.82;;;3.65;;
50531;SDS011;36483;37.396;-122.212;2022-08-01T10:39:42;4.53;;;3.30;;
50531;SDS011;36483;37.396;-122.212;2022-08-01T10:42:09;5.07;;;3.42;;
50531;SDS011;36483;37.396;-122.212;2022-08-01T10:44:37;4.22;;;3.25;;
50531;SDS011;36483;37.396;-122.212;2022-08-01T10:47:07;4.75;;;3.50;;
50531;SDS011;36483;37.396;-122.212;2022-08-01T10:49:34;5.90;;;3.70;;
50531;SDS011;36483;37.396;-122.212;2022-08-01T10:52:04;6.47;;;3.47;;
50531;SDS011;36483;37.396;-122.212;2022-08-01T10:54:37;4.63;;;3.33;;
50531;SDS011;36483;37.396;-122.212;2022-08-01T10:57:04;4.97;;;3.40;;
50531;SDS011;36483;37.396;-122.212;2022-08-01T10:59:32;5.05;;;3.10;;
50531;SDS011;36483;37.396;-122.212;2022-08-01T11:02:04;5.75;;;3.55;;
50531;SDS011;36483;37.396;-122.212;2022-08-01T11:07:06;4.97;;;3.22;;
50531;SDS011;36483;37.396;-122.212;2022-08-01T11:09:43;5.93;;;3.67;;
50531;SDS011;36483;37.396;-122.212;2022-08-01T11:12:12;5.10;;;3.40;;
50531;SDS011;36483;37.396;-122.212;2022-08-01T11:17:31;4.80;;;3.45;;
50531;SDS011;36483;37.396;-122.212;2022-08-01T11:20:25;4.95;;;3.30;;
50531;SDS011;36483;37.396;-122.212;2022-08-01T11:30:50;5.40;;;3.70;;
50531;SDS011;36483;37.396;-122.212;2022-08-01T11:38:40;5.40;;;3.53;;
50531;SDS011;36483;37.396;-122.212;2022-08-01T11:52:00;4.88;;;3.58;;
50531;SDS011;36483;37.396;-122.212;2022-08-01T11:54:34;6.72;;;3.70;;
50531;SDS011;36483;37.396;-122.212;2022-08-01T11:59:38;4.57;;;3.00;;
50531;SDS011;36483;37.396;-122.212;2022-08-01T12:02:14;5.25;;;3.47;;
50531;SDS011;36483;37.396;-122.212;2022-08-01T12:04:46;4.22;;;3.38;;
50531;SDS011;36483;37.396;-122.212;2022-08-01T12:07:16;5.82;;;3.72;;
50531;SDS011;36483;37.396;-122.212;2022-08-01T12:09:43;4.93;;;3.45;;
50531;SDS011;36483;37.396;-122.212;2022-08-01T12:12:10;6.82;;;3.92;;
50531;SDS011;36483;37.396;-122.212;2022-08-01T12:14:36;4.53;;;3.33;;
50531;SDS011;36483;37.396;-122.212;2022-08-01T12:17:02;4.78;;;3.35;;
50531;SDS011;36483;37.396;-122.212;2022-08-01T12:19:29;6.90;;;3.50;;
50531;SDS011;36483;37.396;-122.212;2022-08-01T12:22:04;5.38;;;3.78;;
50531;SDS011;36483;37.396;-122.212;2022-08-01T12:24:32;5.65;;;3.60;;
50531;SDS011;36483;37.396;-122.212;2022-08-01T12:26:59;5.60;;;3.65;;
50531;SDS011;36483;37.396;-122.212;2022-08-01T12:29:59;6.47;;;3.40;;
50531;SDS011;36483;37.396;-122.212;2022-08-01T12:32:22;5.55;;;3.13;;
50531;SDS011;36483;37.396;-122.212;2022-08-01T12:34:49;5.57;;;3.25;;
50531;SDS011;36483;37.396;-122.212;2022-08-01T12:37:16;4.97;;;3.50;;
50531;SDS011;36483;37.396;-122.212;2022-08-01T12:39:43;6.68;;;3.90;;
50531;SDS011;36483;37.396;-122.212;2022-08-01T12:42:12;4.93;;;3.55;;
50531;SDS011;36483;37.396;-122.212;2022-08-01T12:44:39;4.55;;;3.53;;
50531;SDS011;36483;37.396;-122.212;2022-08-01T12:47:06;7.13;;;3.40;;
50531;SDS011;36483;37.396;-122.212;2022-08-01T12:49:33;4.35;;;3.40;;
50531;SDS011;36483;37.396;-122.212;2022-08-01T12:52:01;6.90;;;3.60;;
50531;SDS011;36483;37.396;-122.212;2022-08-01T12:54:27;5.72;;;3.40;;
50531;SDS011;36483;37.396;-122.212;2022-08-01T12:56:54;6.03;;;3.90;;
50531;SDS011;36483;37.396;-122.212;2022-08-01T12:59:24;4.85;;;3.50;;
50531;SDS011;36483;37.396;-122.212;2022-08-01T13:01:52;6.22;;;4.05;;
50531;SDS011;36483;37.396;-122.212;2022-08-01T13:04:19;5.57;;;3.45;;
50531;SDS011;36483;37.396;-122.212;2022-08-01T13:06:46;5.50;;;3.80;;
50531;SDS011;36483;37.396;-122.212;2022-08-01T13:09:30;4.22;;;3.20;;
50531;SDS011;36483;37.396;-122.212;2022-08-01T13:11:57;5.20;;;3.60;;
50531;SDS011;36483;37.396;-122.212;2022-08-01T13:14:28;5.40;;;3.70;;
50531;SDS011;36483;37.396;-122.212;2022-08-01T13:16:54;5.28;;;4.03;;
50531;SDS011;36483;37.396;-122.212;2022-08-01T13:19:20;5.95;;;3.55;;
50531;SDS011;36483;37.396;-122.212;2022-08-01T13:22:06;7.03;;;3.88;;
50531;SDS011;36483;37.396;-122.212;2022-08-01T13:24:32;8.88;;;3.80;;
50531;SDS011;36483;37.396;-122.212;2022-08-01T13:26:59;5.05;;;3.47;;
50531;SDS011;36483;37.396;-122.212;2022-08-01T13:29:35;4.60;;;3.50;;
50531;SDS011;36483;37.396;-122.212;2022-08-01T13:34:43;7.07;;;4.78;;
50531;SDS011;36483;37.396;-122.212;2022-08-01T13:37:09;6.07;;;3.97;;
50531;SDS011;36483;37.396;-122.212;2022-08-01T13:39:35;8.15;;;4.10;;
50531;SDS011;36483;37.396;-122.212;2022-08-01T13:42:12;7.45;;;4.70;;
50531;SDS011;36483;37.396;-122.212;2022-08-01T13:44:40;5.60;;;4.10;;
50531;SDS011;36483;37.396;-122.212;2022-08-01T13:47:07;6.07;;;4.30;;
50531;SDS011;36483;37.396;-122.212;2022-08-01T13:49:33;6.75;;;4.68;;
50531;SDS011;36483;37.396;-122.212;2022-08-01T13:52:00;8.45;;;5.05;;
50531;SDS011;36483;37.396;-122.212;2022-08-01T13:54:26;6.90;;;4.65;;
50531;SDS011;36483;37.396;-122.212;2022-08-01T13:56:53;6.53;;;4.53;;
50531;SDS011;36483;37.396;-122.212;2022-08-01T13:59:19;7.18;;;4.90;;
50531;SDS011;36483;37.396;-122.212;2022-08-01T14:01:46;7.72;;;4.60;;
50531;SDS011;36483;37.396;-122.212;2022-08-01T14:04:12;7.82;;;4.82;;
50531;SDS011;36483;37.396;-122.212;2022-08-01T14:06:38;6.15;;;4.68;;
50531;SDS011;36483;37.396;-122.212;2022-08-01T14:09:04;5.93;;;4.15;;
50531;SDS011;36483;37.396;-122.212;2022-08-01T14:11:31;6.95;;;4.28;;
50531;SDS011;36483;37.396;-122.212;2022-08-01T14:13:57;9.95;;;4.88;;
50531;SDS011;36483;37.396;-122.212;2022-08-01T14:16:23;10.68;;;5.30;;
50531;SDS011;36483;37.396;-122.212;2022-08-01T14:18:50;10.00;;;5.80;;
50531;SDS011;36483;37.396;-122.212;2022-08-01T14:21:16;9.20;;;4.88;;
50531;SDS011;36483;37.396;-122.212;2022-08-01T14:23:42;10.32;;;5.25;;
50531;SDS011;36483;37.396;-122.212;2022-08-01T14:26:09;11.13;;;5.00;;
50531;SDS011;36483;37.396;-122.212;2022-08-01T14:28:38;7.35;;;5.05;;
50531;SDS011;36483;37.396;-122.212;2022-08-01T14:31:05;8.05;;;4.90;;
50531;SDS011;36483;37.396;-122.212;2022-08-01T14:33:31;10.68;;;5.32;;
50531;SDS011;36483;37.396;-122.212;2022-08-01T14:35:57;8.88;;;5.03;;
50531;SDS011;36483;37.396;-122.212;2022-08-01T14:38:24;7.55;;;4.97;;
50531;SDS011;36483;37.396;-122.212;2022-08-01T14:40:50;8.00;;;5.05;;
50531;SDS011;36483;37.396;-122.212;2022-08-01T14:43:17;6.43;;;4.47;;
50531;SDS011;36483;37.396;-122.212;2022-08-01T14:45:43;11.73;;;4.35;;
50531;SDS011;36483;37.396;-122.212;2022-08-01T14:48:09;7.05;;;4.63;;
50531;SDS011;36483;37.396;-122.212;2022-08-01T14:50:36;10.43;;;5.55;;
50531;SDS011;36483;37.396;-122.212;2022-08-01T14:53:02;7.55;;;4.70;;
50531;SDS011;36483;37.396;-122.212;2022-08-01T14:55:28;6.85;;;4.53;;
50531;SDS011;36483;37.396;-122.212;2022-08-01T14:57:54;9.15;;;4.82;;
50531;SDS011;36483;37.396;-122.212;2022-08-01T15:00:20;8.73;;;4.78;;
50531;SDS011;36483;37.396;-122.212;2022-08-01T15:02:47;7.30;;;5.00;;